sensor_id;sensor_type;location;lat;lon;timestamp;P1;durP1;ratioP1;P2;durP2;ratioP2
52072;SDS011;38074;51.232;6.826;2023-04-19T00:04:12;2.70;;;2.25;;
52072;SDS011;38074;51.232;6.826;2023-04-19T00:11:28;3.07;;;2.63;;
52072;SDS011;38074;51.232;6.826;2023-04-19T00:18:44;2.83;;;2.13;;
52072;SDS011;38074;51.232;6.826;2023-04-19T00:26:03;2.60;;;1.70;;
52072;SDS011;38074;51.232;6.826;2023-04-19T00:33:19;3.83;;;2.20;;
52072;SDS011;38074;51.232;6.826;2023-04-19T00:40:35;2.30;;;1.90;;
52072;SDS011;38074;51.232;6.826;2023-04-19T00:47:51;2.73;;;2.00;;
52072;SDS011;38074;51.232;6.826;2023-04-19T00:55:07;3.47;;;2.20;;
52072;SDS011;38074;51.232;6.826;2023-04-19T01:02:23;3.50;;;2.28;;
52072;SDS011;38074;51.232;6.826;2023-04-19T01:09:40;2.28;;;1.80;;
52072;SDS011;38074;51.232;6.826;2023-04-19T01:16:57;2.10;;;1.90;;
52072;SDS011;38074;51.232;6.826;2023-04-19T01:24:13;2.70;;;2.10;;
52072;SDS011;38074;51.232;6.826;2023-04-19T01:31:28;1.90;;;1.70;;
52072;SDS011;38074;51.232;6.826;2023-04-19T01:38:44;2.33;;;1.83;;
52072;SDS011;38074;51.232;6.826;2023-04-19T01:53:17;2.17;;;1.70;;
52072;SDS011;38074;51.232;6.826;2023-04-19T02:00:32;2.30;;;1.90;;
52072;SDS011;38074;51.232;6.826;2023-04-19T02:07:48;2.00;;;1.80;;
52072;SDS011;38074;51.232;6.826;2023-04-19T02:15:03;2.30;;;1.70;;
52072;SDS011;38074;51.232;6.826;2023-04-19T02:22:19;2.00;;;1.65;;
52072;SDS011;38074;51.232;6.826;2023-04-19T02:29:35;1.87;;;1.60;;
52072;SDS011;38074;51.232;6.826;2023-04-19T02:36:51;1.73;;;1.43;;
52072;SDS011;38074;51.232;6.826;2023-04-19T02:44:07;2.03;;;1.50;;
52072;SDS011;38074;51.232;6.826;2023-04-19T02:51:22;2.27;;;1.70;;
52072;SDS011;38074;51.232;6.826;2023-04-19T02:58:38;2.20;;;1.90;;
52072;SDS011;38074;51.232;6.826;2023-04-19T03:05:53;2.60;;;1.80;;
52072;SDS011;38074;51.232;6.826;2023-04-19T03:13:09;2.60;;;1.70;;
52072;SDS011;38074;51.232;6.826;2023-04-19T03:20:25;2.17;;;1.77;;
52072;SDS011;38074;51.232;6.826;2023-04-19T03:27:41;1.65;;;1.40;;
52072;SDS011;38074;51.232;6.826;2023-04-19T03:34:59;2.28;;;1.55;;
52072;SDS011;38074;51.232;6.826;2023-04-19T03:42:14;1.65;;;1.40;;
52072;SDS011;38074;51.232;6.826;2023-04-19T03:49:30;2.37;;;1.70;;
52072;SDS011;38074;51.232;6.826;2023-04-19T03:56:46;2.53;;;1.70;;
52072;SDS011;38074;51.232;6.826;2023-04-19T04:04:01;1.88;;;1.55;;
52072;SDS011;38074;51.232;6.826;2023-04-19T04:11:17;4.03;;;1.58;;
52072;SDS011;38074;51.232;6.826;2023-04-19T04:18:32;1.63;;;1.30;;
52072;SDS011;38074;51.232;6.826;2023-04-19T04:25:55;2.80;;;1.93;;
52072;SDS011;38074;51.232;6.826;2023-04-19T04:33:13;1.85;;;1.30;;
52072;SDS011;38074;51.232;6.826;2023-04-19T04:40:28;1.37;;;1.20;;
52072;SDS011;38074;51.232;6.826;2023-04-19T04:47:44;1.80;;;1.27;;
52072;SDS011;38074;51.232;6.826;2023-04-19T04:55:02;1.50;;;1.25;;
52072;SDS011;38074;51.232;6.826;2023-04-19T05:02:18;1.40;;;1.10;;
52072;SDS011;38074;51.232;6.826;2023-04-19T05:09:34;1.43;;;1.20;;
52072;SDS011;38074;51.232;6.826;2023-04-19T05:16:49;1.67;;;1.20;;
52072;SDS011;38074;51.232;6.826;2023-04-19T05:24:06;2.10;;;1.42;;
52072;SDS011;38074;51.232;6.826;2023-04-19T05:31:23;5.32;;;2.20;;
52072;SDS011;38074;51.232;6.826;2023-04-19T05:38:39;10.00;;;4.00;;
52072;SDS011;38074;51.232;6.826;2023-04-19T05:45:54;13.03;;;4.03;;
52072;SDS011;38074;51.232;6.826;2023-04-19T05:53:10;8.67;;;3.43;;
52072;SDS011;38074;51.232;6.826;2023-04-19T06:00:26;10.88;;;3.65;;
52072;SDS011;38074;51.232;6.826;2023-04-19T06:07:42;6.65;;;3.60;;
52072;SDS011;38074;51.232;6.826;2023-04-19T06:14:57;8.87;;;4.03;;
52072;SDS011;38074;51.232;6.826;2023-04-19T06:22:13;7.70;;;2.90;;
52072;SDS011;38074;51.232;6.826;2023-04-19T06:29:29;8.07;;;2.47;;
52072;SDS011;38074;51.232;6.826;2023-04-19T06:36:44;5.93;;;2.75;;
52072;SDS011;38074;51.232;6.826;2023-04-19T06:44:00;5.37;;;2.67;;
52072;SDS011;38074;51.232;6.826;2023-04-19T06:51:15;5.20;;;2.83;;
52072;SDS011;38074;51.232;6.826;2023-04-19T06:58:31;6.83;;;2.63;;
52072;SDS011;38074;51.232;6.826;2023-04-19T07:05:46;5.07;;;2.60;;
52072;SDS011;38074;51.232;6.826;2023-04-19T07:13:02;6.43;;;2.35;;
52072;SDS011;38074;51.232;6.826;2023-04-19T07:20:18;8.33;;;3.07;;
52072;SDS011;38074;51.232;6.826;2023-04-19T07:27:34;6.90;;;2.90;;
52072;SDS011;38074;51.232;6.826;2023-04-19T07:34:49;4.15;;;2.13;;
52072;SDS011;38074;51.232;6.826;2023-04-19T07:42:05;6.10;;;2.13;;
52072;SDS011;38074;51.232;6.826;2023-04-19T07:49:21;7.28;;;2.55;;
52072;SDS011;38074;51.232;6.826;2023-04-19T07:56:37;4.93;;;2.43;;
52072;SDS011;38074;51.232;6.826;2023-04-19T08:03:52;5.87;;;2.20;;
52072;SDS011;38074;51.232;6.826;2023-04-19T08:11:08;3.50;;;2.13;;
52072;SDS011;38074;51.232;6.826;2023-04-19T08:18:23;4.47;;;1.77;;
52072;SDS011;38074;51.232;6.826;2023-04-19T08:25:39;5.55;;;2.17;;
52072;SDS011;38074;51.232;6.826;2023-04-19T08:32:55;7.55;;;2.47;;
52072;SDS011;38074;51.232;6.826;2023-04-19T08:40:10;2.83;;;1.90;;
52072;SDS011;38074;51.232;6.826;2023-04-19T08:47:26;3.15;;;1.95;;
52072;SDS011;38074;51.232;6.826;2023-04-19T08:54:42;3.25;;;1.65;;
52072;SDS011;38074;51.232;6.826;2023-04-19T09:02:02;3.83;;;1.83;;
52072;SDS011;38074;51.232;6.826;2023-04-19T09:16:37;7.75;;;1.95;;
52072;SDS011;38074;51.232;6.826;2023-04-19T09:23:53;3.10;;;1.70;;
52072;SDS011;38074;51.232;6.826;2023-04-19T09:31:12;3.73;;;1.60;;
52072;SDS011;38074;51.232;6.826;2023-04-19T09:38:28;3.15;;;1.75;;
52072;SDS011;38074;51.232;6.826;2023-04-19T09:45:44;3.00;;;1.60;;
52072;SDS011;38074;51.232;6.826;2023-04-19T09:53:00;2.97;;;1.50;;
52072;SDS011;38074;51.232;6.826;2023-04-19T10:00:16;2.88;;;1.60;;
52072;SDS011;38074;51.232;6.826;2023-04-19T10:07:32;3.95;;;1.58;;
52072;SDS011;38074;51.232;6.826;2023-04-19T10:14:48;1.73;;;1.10;;
52072;SDS011;38074;51.232;6.826;2023-04-19T10:22:04;2.38;;;1.25;;
52072;SDS011;38074;51.232;6.826;2023-04-19T10:37:14;2.88;;;1.05;;
52072;SDS011;38074;51.232;6.826;2023-04-19T10:44:30;2.58;;;1.23;;
52072;SDS011;38074;51.232;6.826;2023-04-19T10:51:49;3.13;;;1.20;;
52072;SDS011;38074;51.232;6.826;2023-04-19T10:59:14;2.25;;;1.33;;
52072;SDS011;38074;51.232;6.826;2023-04-19T11:06:36;3.97;;;1.10;;
52072;SDS011;38074;51.232;6.826;2023-04-19T11:14:15;3.20;;;0.80;;
52072;SDS011;38074;51.232;6.826;2023-04-19T11:21:31;2.58;;;1.20;;
52072;SDS011;38074;51.232;6.826;2023-04-19T11:28:47;1.45;;;0.85;;
52072;SDS011;38074;51.232;6.826;2023-04-19T11:36:04;2.53;;;0.95;;
52072;SDS011;38074;51.232;6.826;2023-04-19T11:43:33;2.38;;;1.10;;
52072;SDS011;38074;51.232;6.826;2023-04-19T11:50:50;2.47;;;1.23;;
52072;SDS011;38074;51.232;6.826;2023-04-19T11:58:26;2.40;;;1.33;;
52072;SDS011;38074;51.232;6.826;2023-04-19T12:06:03;2.75;;;1.00;;
52072;SDS011;38074;51.232;6.826;2023-04-19T12:13:23;2.22;;;0.85;;
52072;SDS011;38074;51.232;6.826;2023-04-19T12:20:46;1.88;;;1.10;;
52072;SDS011;38074;51.232;6.826;2023-04-19T12:28:03;2.58;;;1.27;;
52072;SDS011;38074;51.232;6.826;2023-04-19T12:35:19;2.45;;;0.85;;
52072;SDS011;38074;51.232;6.826;2023-04-19T12:42:35;1.80;;;0.90;;
52072;SDS011;38074;51.232;6.826;2023-04-19T12:49:50;1.50;;;0.93;;
52072;SDS011;38074;51.232;6.826;2023-04-19T12:57:06;1.27;;;0.60;;
52072;SDS011;38074;51.232;6.826;2023-04-19T13:04:21;1.80;;;0.70;;
52072;SDS011;38074;51.232;6.826;2023-04-19T13:11:37;1.42;;;0.93;;
52072;SDS011;38074;51.232;6.826;2023-04-19T13:18:52;2.63;;;1.10;;
52072;SDS011;38074;51.232;6.826;2023-04-19T13:26:09;3.53;;;0.93;;
52072;SDS011;38074;51.232;6.826;2023-04-19T13:33:24;2.45;;;0.77;;
52072;SDS011;38074;51.232;6.826;2023-04-19T13:40:40;2.80;;;1.00;;
52072;SDS011;38074;51.232;6.826;2023-04-19T13:47:56;3.33;;;0.70;;
52072;SDS011;38074;51.232;6.826;2023-04-19T13:55:11;2.20;;;0.83;;
52072;SDS011;38074;51.232;6.826;2023-04-19T14:02:27;1.60;;;0.80;;
52072;SDS011;38074;51.232;6.826;2023-04-19T14:09:42;2.27;;;0.50;;
52072;SDS011;38074;51.232;6.826;2023-04-19T14:16:58;2.00;;;0.70;;
52072;SDS011;38074;51.232;6.826;2023-04-19T14:24:14;1.40;;;0.67;;
52072;SDS011;38074;51.232;6.826;2023-04-19T14:31:29;1.70;;;0.60;;
52072;SDS011;38074;51.232;6.826;2023-04-19T14:38:45;0.83;;;0.50;;
52072;SDS011;38074;51.232;6.826;2023-04-19T14:46:00;1.40;;;0.63;;
52072;SDS011;38074;51.232;6.826;2023-04-19T14:53:16;0.80;;;0.50;;
52072;SDS011;38074;51.232;6.826;2023-04-19T15:00:32;2.00;;;0.60;;
52072;SDS011;38074;51.232;6.826;2023-04-19T15:07:48;1.00;;;0.80;;
52072;SDS011;38074;51.232;6.826;2023-04-19T15:15:04;1.40;;;0.65;;
52072;SDS011;38074;51.232;6.826;2023-04-19T15:22:20;0.57;;;0.40;;
52072;SDS011;38074;51.232;6.826;2023-04-19T15:29:35;0.93;;;0.40;;
52072;SDS011;38074;51.232;6.826;2023-04-19T15:36:53;1.40;;;0.50;;
52072;SDS011;38074;51.232;6.826;2023-04-19T15:44:09;0.60;;;0.47;;
52072;SDS011;38074;51.232;6.826;2023-04-19T15:51:24;0.60;;;0.40;;
52072;SDS011;38074;51.232;6.826;2023-04-19T15:58:41;0.80;;;0.55;;
52072;SDS011;38074;51.232;6.826;2023-04-19T16:05:56;0.70;;;0.47;;
52072;SDS011;38074;51.232;6.826;2023-04-19T16:13:12;1.27;;;0.50;;
52072;SDS011;38074;51.232;6.826;2023-04-19T16:20:28;0.98;;;0.50;;
52072;SDS011;38074;51.232;6.826;2023-04-19T16:27:44;0.60;;;0.30;;
52072;SDS011;38074;51.232;6.826;2023-04-19T16:35:00;1.08;;;0.50;;
52072;SDS011;38074;51.232;6.826;2023-04-19T16:42:17;0.90;;;0.50;;
52072;SDS011;38074;51.232;6.826;2023-04-19T16:49:33;0.43;;;0.40;;
52072;SDS011;38074;51.232;6.826;2023-04-19T16:56:48;0.67;;;0.40;;
52072;SDS011;38074;51.232;6.826;2023-04-19T17:04:04;0.80;;;0.50;;
52072;SDS011;38074;51.232;6.826;2023-04-19T17:11:20;1.05;;;0.40;;
52072;SDS011;38074;51.232;6.826;2023-04-19T17:18:35;1.43;;;0.80;;
52072;SDS011;38074;51.232;6.826;2023-04-19T17:25:50;2.63;;;0.73;;
52072;SDS011;38074;51.232;6.826;2023-04-19T17:33:06;1.83;;;0.60;;
52072;SDS011;38074;51.232;6.826;2023-04-19T17:40:21;3.03;;;0.50;;
52072;SDS011;38074;51.232;6.826;2023-04-19T17:47:37;4.00;;;0.70;;
52072;SDS011;38074;51.232;6.826;2023-04-19T17:54:53;5.68;;;0.60;;
52072;SDS011;38074;51.232;6.826;2023-04-19T18:02:09;6.27;;;1.00;;
52072;SDS011;38074;51.232;6.826;2023-04-19T18:09:24;3.73;;;0.73;;
52072;SDS011;38074;51.232;6.826;2023-04-19T18:16:40;5.20;;;0.80;;
52072;SDS011;38074;51.232;6.826;2023-04-19T18:23:55;2.80;;;0.70;;
52072;SDS011;38074;51.232;6.826;2023-04-19T18:31:11;4.10;;;0.70;;
52072;SDS011;38074;51.232;6.826;2023-04-19T18:38:26;3.80;;;0.80;;
52072;SDS011;38074;51.232;6.826;2023-04-19T18:45:42;4.13;;;0.80;;
52072;SDS011;38074;51.232;6.826;2023-04-19T18:52:57;7.10;;;1.40;;
52072;SDS011;38074;51.232;6.826;2023-04-19T19:00:13;10.27;;;2.80;;
52072;SDS011;38074;51.232;6.826;2023-04-19T19:07:29;11.13;;;3.20;;
52072;SDS011;38074;51.232;6.826;2023-04-19T19:14:45;9.88;;;2.25;;
52072;SDS011;38074;51.232;6.826;2023-04-19T19:22:00;8.03;;;2.43;;
52072;SDS011;38074;51.232;6.826;2023-04-19T19:29:16;9.87;;;2.60;;
52072;SDS011;38074;51.232;6.826;2023-04-19T19:36:32;8.05;;;2.38;;
52072;SDS011;38074;51.232;6.826;2023-04-19T19:43:47;7.73;;;2.67;;
52072;SDS011;38074;51.232;6.826;2023-04-19T19:51:04;11.23;;;3.10;;
52072;SDS011;38074;51.232;6.826;2023-04-19T19:58:20;9.50;;;3.07;;
52072;SDS011;38074;51.232;6.826;2023-04-19T20:05:35;10.40;;;2.47;;
52072;SDS011;38074;51.232;6.826;2023-04-19T20:12:51;8.27;;;2.30;;
52072;SDS011;38074;51.232;6.826;2023-04-19T20:20:10;5.47;;;2.17;;
52072;SDS011;38074;51.232;6.826;2023-04-19T20:27:27;6.63;;;2.10;;
52072;SDS011;38074;51.232;6.826;2023-04-19T20:34:42;4.82;;;2.20;;
52072;SDS011;38074;51.232;6.826;2023-04-19T20:41:58;9.90;;;2.80;;
52072;SDS011;38074;51.232;6.826;2023-04-19T20:49:13;6.13;;;2.17;;
52072;SDS011;38074;51.232;6.826;2023-04-19T20:56:30;7.28;;;2.50;;
52072;SDS011;38074;51.232;6.826;2023-04-19T21:03:46;7.17;;;1.87;;
52072;SDS011;38074;51.232;6.826;2023-04-19T21:11:01;6.63;;;2.07;;
52072;SDS011;38074;51.232;6.826;2023-04-19T21:18:17;7.40;;;2.03;;
52072;SDS011;38074;51.232;6.826;2023-04-19T21:25:32;7.80;;;2.00;;
52072;SDS011;38074;51.232;6.826;2023-04-19T21:32:48;7.82;;;2.20;;
52072;SDS011;38074;51.232;6.826;2023-04-19T21:40:04;5.27;;;1.77;;
52072;SDS011;38074;51.232;6.826;2023-04-19T21:47:20;5.68;;;1.50;;
52072;SDS011;38074;51.232;6.826;2023-04-19T21:54:35;3.30;;;1.67;;
52072;SDS011;38074;51.232;6.826;2023-04-19T22:01:51;6.60;;;1.90;;
52072;SDS011;38074;51.232;6.826;2023-04-19T22:09:06;6.17;;;1.70;;
52072;SDS011;38074;51.232;6.826;2023-04-19T22:16:22;5.17;;;1.40;;
52072;SDS011;38074;51.232;6.826;2023-04-19T22:23:37;4.77;;;1.50;;
52072;SDS011;38074;51.232;6.826;2023-04-19T22:30:52;7.43;;;1.63;;
52072;SDS011;38074;51.232;6.826;2023-04-19T22:38:08;5.57;;;1.70;;
52072;SDS011;38074;51.232;6.826;2023-04-19T22:45:24;5.47;;;1.43;;
52072;SDS011;38074;51.232;6.826;2023-04-19T22:52:39;4.33;;;1.13;;
52072;SDS011;38074;51.232;6.826;2023-04-19T22:59:55;3.60;;;1.55;;
52072;SDS011;38074;51.232;6.826;2023-04-19T23:07:10;3.93;;;1.20;;
52072;SDS011;38074;51.232;6.826;2023-04-19T23:14:27;2.47;;;1.00;;
52072;SDS011;38074;51.232;6.826;2023-04-19T23:21:43;3.67;;;1.58;;
52072;SDS011;38074;51.232;6.826;2023-04-19T23:28:58;2.10;;;1.00;;
52072;SDS011;38074;51.232;6.826;2023-04-19T23:36:14;3.55;;;1.23;;
52072;SDS011;38074;51.232;6.826;2023-04-19T23:43:29;1.67;;;1.00;;
52072;SDS011;38074;51.232;6.826;2023-04-19T23:50:45;2.60;;;1.20;;
52072;SDS011;38074;51.232;6.826;2023-04-19T23:58:00;2.93;;;1.30;;
